Kezdőlap
METAR-TAF:

METAR-TAF

Repülőterek :

Boone Municipal Airport

Boone, Iowa, Amerikai Egyesült Államok

földrajzi szélesség: 42-03N, földrajzi hosszúság: 093-51W, magasság: 354 m

Jelenlegi meteorológiai megfigyelések

A jelentés 26 perccel ezelõtt készült, 03:15 UTC
Dél-délkeleti szél 9 kt
Hőmérséklet 21°C
Páratartalom 100%
Légköri nyomás 1009 hPa
Látótávolság: 16.1 km
Szórványos felhőzet 3100 lábon
Borult 3700 lábon

METAR: KBNW 270315Z AUTO 16009KT 10SM SCT031 OVC037 21/21 A2979 RMK AO2

Idő: 22:41 (03:41 UTC)


TAF: hiányzik

Meteorológiai megfigyelések és előrejelzések több, mint 4000 repülőtéren (METAR és TAF jelentéseket).

A térképen piros és sárga pontok jelzik az elérhető meteorológiai állomásokat.

Mozgassa az egeret a pont fölött, hogy megjelenjen az állomás neve.

Azután kattintson az időjárási megfigyelések és előrejelzések megtekintéséhez.

A térkép megváltoztatása: kattintson a fekete keresztel jelölt zöld gombra ráközelítéshez, a vonallal jelölt zöld gombra távolításhoz, vagy a zöld nyilakra a szomszédos térképek eléréséhez.


METAR-TAF: